createdAt,value
2023-01-27T00:00:18.816Z,935.91
2023-01-27T00:01:19.022Z,935.91
2023-01-27T00:02:19.259Z,935.84
2023-01-27T00:03:20.185Z,935.91
2023-01-27T00:04:20.284Z,935.88
2023-01-27T00:05:20.488Z,935.89
2023-01-27T00:06:20.711Z,935.91
2023-01-27T00:07:21.193Z,935.89
2023-01-27T00:08:21.433Z,935.87
2023-01-27T00:09:22.470Z,935.83
2023-01-27T00:10:23.394Z,935.82
2023-01-27T00:11:23.591Z,935.78
2023-01-27T00:12:23.782Z,935.79
2023-01-27T00:13:24.697Z,935.74
2023-01-27T00:14:25.604Z,935.79
2023-01-27T00:15:26.562Z,935.79
2023-01-27T00:16:26.941Z,935.81
2023-01-27T00:17:27.843Z,935.82
2023-01-27T00:18:28.111Z,935.79
2023-01-27T00:19:28.311Z,935.78
2023-01-27T00:20:29.233Z,935.78
2023-01-27T00:21:29.458Z,935.77
2023-01-27T00:22:30.384Z,935.83
2023-01-27T00:23:30.602Z,935.83
2023-01-27T00:24:30.891Z,935.8
2023-01-27T00:25:31.104Z,935.8
2023-01-27T00:26:31.755Z,935.76
2023-01-27T00:27:32.248Z,935.77
2023-01-27T00:28:32.728Z,935.82
2023-01-27T00:29:33.076Z,935.79
2023-01-27T00:30:33.450Z,935.8
2023-01-27T00:31:33.671Z,935.76
2023-01-27T00:32:33.864Z,935.79
2023-01-27T00:33:34.451Z,935.76
2023-01-27T00:34:35.387Z,935.74
2023-01-27T00:35:36.026Z,935.77
2023-01-27T00:36:36.393Z,935.68
2023-01-27T00:37:37.357Z,935.75
2023-01-27T00:38:38.296Z,935.68
2023-01-27T00:39:38.601Z,935.66
2023-01-27T00:40:38.831Z,935.68
2023-01-27T00:41:39.027Z,935.68
2023-01-27T00:42:39.984Z,935.63
2023-01-27T00:43:40.639Z,935.64
2023-01-27T00:44:40.860Z,935.62
2023-01-27T00:45:41.349Z,935.63
2023-01-27T00:46:42.051Z,935.6
2023-01-27T00:47:42.091Z,935.58
2023-01-27T00:48:42.640Z,935.59
2023-01-27T00:49:43.480Z,935.56
2023-01-27T00:50:43.963Z,935.55
2023-01-27T00:51:44.888Z,935.55
2023-01-27T00:52:45.671Z,935.57
2023-01-27T00:53:46.321Z,935.62
2023-01-27T00:54:46.842Z,935.63
2023-01-27T00:55:47.752Z,935.65
2023-01-27T00:56:47.956Z,935.59
2023-01-27T00:57:48.884Z,935.59
2023-01-27T00:58:49.802Z,935.61
2023-01-27T00:59:50.521Z,935.61
2023-01-27T01:00:50.947Z,935.62
2023-01-27T01:01:51.215Z,935.58
2023-01-27T01:02:52.160Z,935.64
2023-01-27T01:03:52.950Z,935.67
2023-01-27T01:04:53.152Z,935.66
2023-01-27T01:05:54.098Z,935.68
2023-01-27T01:06:55.026Z,935.7
2023-01-27T01:07:55.224Z,935.72
2023-01-27T01:08:55.442Z,935.7
2023-01-27T01:09:55.868Z,935.69
2023-01-27T01:10:56.472Z,935.69
2023-01-27T01:11:56.841Z,935.65
2023-01-27T01:12:57.046Z,935.67
2023-01-27T01:13:57.292Z,935.64
2023-01-27T01:14:57.904Z,935.64
2023-01-27T01:15:58.550Z,935.7
2023-01-27T01:16:58.831Z,935.66
2023-01-27T01:17:59.040Z,935.7
2023-01-27T01:18:59.603Z,935.75
2023-01-27T01:19:59.992Z,935.74
2023-01-27T01:21:00.295Z,935.78
2023-01-27T01:22:00.521Z,935.76
2023-01-27T01:23:01.439Z,935.77
2023-01-27T01:24:02.437Z,935.81
2023-01-27T01:25:02.608Z,935.81
2023-01-27T01:26:02.837Z,935.81
2023-01-27T01:27:03.841Z,935.79
2023-01-27T01:28:04.054Z,935.78
2023-01-27T01:29:04.972Z,935.79
2023-01-27T01:30:05.415Z,935.79
2023-01-27T01:31:06.561Z,935.83
2023-01-27T01:32:07.124Z,935.81
2023-01-27T01:33:08.051Z,935.82
2023-01-27T01:34:08.627Z,935.77
2023-01-27T01:35:08.827Z,935.76
2023-01-27T01:36:09.609Z,935.71
2023-01-27T01:37:10.557Z,935.72
2023-01-27T01:38:11.473Z,935.7
2023-01-27T01:39:12.426Z,935.68
2023-01-27T01:40:13.674Z,935.67
2023-01-27T01:41:13.707Z,935.67
2023-01-27T01:42:14.694Z,935.63
2023-01-27T01:43:15.624Z,935.63
2023-01-27T01:44:16.260Z,935.66
2023-01-27T01:45:17.184Z,935.62
2023-01-27T01:46:17.528Z,935.61
2023-01-27T01:47:18.012Z,935.63
2023-01-27T01:48:18.942Z,935.66
2023-01-27T01:49:20.000Z,935.7
2023-01-27T01:50:20.735Z,935.63
2023-01-27T01:51:21.400Z,935.62
2023-01-27T01:52:21.908Z,935.63
2023-01-27T01:53:22.095Z,935.65
2023-01-27T01:54:23.026Z,935.67
2023-01-27T01:55:23.554Z,935.68
2023-01-27T01:56:24.496Z,935.66
2023-01-27T01:57:25.453Z,935.65
2023-01-27T01:58:26.372Z,935.65
2023-01-27T01:59:27.050Z,935.62
2023-01-27T02:00:27.283Z,935.61
2023-01-27T02:01:27.866Z,935.56
2023-01-27T02:02:28.651Z,935.65
2023-01-27T02:03:29.055Z,935.63
2023-01-27T02:04:30.042Z,935.65
2023-01-27T02:05:30.658Z,935.63
2023-01-27T02:06:31.600Z,935.61
2023-01-27T02:07:31.815Z,935.56
2023-01-27T02:08:32.043Z,935.61
2023-01-27T02:09:32.694Z,935.63
2023-01-27T02:10:33.111Z,935.58
2023-01-27T02:11:33.658Z,935.57
2023-01-27T02:12:34.627Z,935.59
2023-01-27T02:13:34.827Z,935.63
2023-01-27T02:14:35.046Z,935.63
2023-01-27T02:15:35.726Z,935.57
2023-01-27T02:16:36.412Z,935.56
2023-01-27T02:17:36.699Z,935.52
2023-01-27T02:18:37.607Z,935.52
2023-01-27T02:19:37.851Z,935.5
2023-01-27T02:20:38.176Z,935.5
2023-01-27T02:21:38.459Z,935.47
2023-01-27T02:22:38.831Z,935.51
2023-01-27T02:23:39.749Z,935.47
2023-01-27T02:24:40.413Z,935.45
2023-01-27T02:25:40.979Z,935.5
2023-01-27T02:26:41.901Z,935.48
2023-01-27T02:27:42.158Z,935.47
2023-01-27T02:28:42.384Z,935.45
2023-01-27T02:29:43.326Z,935.39
2023-01-27T02:30:43.869Z,935.39
2023-01-27T02:31:44.773Z,935.42
2023-01-27T02:32:45.422Z,935.44
2023-01-27T02:33:45.756Z,935.4
2023-01-27T02:34:46.305Z,935.41
2023-01-27T02:35:47.336Z,935.41
2023-01-27T02:36:47.632Z,935.38
2023-01-27T02:37:48.289Z,935.39
2023-01-27T02:38:48.775Z,935.35
2023-01-27T02:39:49.752Z,935.36
2023-01-27T02:40:49.820Z,935.35
2023-01-27T02:41:50.038Z,935.34
2023-01-27T02:42:50.668Z,935.36
2023-01-27T02:43:51.619Z,935.33
2023-01-27T02:44:52.529Z,935.28
2023-01-27T02:45:52.852Z,935.3
2023-01-27T02:46:52.973Z,935.24
2023-01-27T02:47:53.344Z,935.24
2023-01-27T02:48:53.612Z,935.25
2023-01-27T02:49:54.163Z,935.26
2023-01-27T02:50:54.590Z,935.28
2023-01-27T02:51:55.554Z,935.31
2023-01-27T02:52:55.750Z,935.29
2023-01-27T02:53:56.690Z,935.29
2023-01-27T02:54:56.908Z,935.27
2023-01-27T02:55:57.017Z,935.27
2023-01-27T02:56:57.644Z,935.29
2023-01-27T02:57:57.989Z,935.34
2023-01-27T02:58:58.985Z,935.37
2023-01-27T02:59:59.914Z,935.41
2023-01-27T03:01:00.664Z,935.42
2023-01-27T03:02:01.536Z,935.43
2023-01-27T03:03:02.058Z,935.4
2023-01-27T03:04:02.989Z,935.41
2023-01-27T03:05:03.280Z,935.41
2023-01-27T03:06:03.495Z,935.44
2023-01-27T03:07:03.839Z,935.42
2023-01-27T03:08:04.049Z,935.44
2023-01-27T03:09:04.721Z,935.47
2023-01-27T03:10:05.675Z,935.47
2023-01-27T03:11:06.315Z,935.47
2023-01-27T03:12:07.258Z,935.41
2023-01-27T03:13:08.261Z,935.44
2023-01-27T03:14:08.781Z,935.42
2023-01-27T03:15:09.339Z,935.45
2023-01-27T03:16:12.090Z,935.45
2023-01-27T03:17:11.092Z,935.48
2023-01-27T03:18:11.601Z,935.46
2023-01-27T03:19:11.872Z,935.41
2023-01-27T03:20:12.239Z,935.44
2023-01-27T03:21:13.246Z,935.47
2023-01-27T03:22:13.581Z,935.42
2023-01-27T03:23:13.810Z,935.39
2023-01-27T03:24:14.039Z,935.34
2023-01-27T03:25:15.556Z,935.33
2023-01-27T03:26:15.942Z,935.34
2023-01-27T03:27:16.161Z,935.29
2023-01-27T03:28:17.119Z,935.27
2023-01-27T03:29:18.166Z,935.26
2023-01-27T03:30:18.812Z,935.24
2023-01-27T03:31:20.026Z,935.27
2023-01-27T03:32:20.001Z,935.3
2023-01-27T03:33:20.922Z,935.31
2023-01-27T03:34:21.537Z,935.31
2023-01-27T03:35:22.120Z,935.32
2023-01-27T03:36:22.497Z,935.3
2023-01-27T03:37:23.003Z,935.27
2023-01-27T03:38:23.635Z,935.22
2023-01-27T03:39:23.860Z,935.24
2023-01-27T03:40:24.875Z,935.25
2023-01-27T03:41:25.538Z,935.27
2023-01-27T03:42:26.433Z,935.28
2023-01-27T03:43:26.635Z,935.33
2023-01-27T03:44:27.623Z,935.26
2023-01-27T03:45:28.563Z,935.25
2023-01-27T03:46:29.215Z,935.22
2023-01-27T03:47:29.741Z,935.24
2023-01-27T03:48:30.679Z,935.28
2023-01-27T03:49:30.951Z,935.25
2023-01-27T03:50:32.007Z,935.26
2023-01-27T03:51:32.371Z,935.2
2023-01-27T03:52:33.284Z,935.24
2023-01-27T03:53:33.504Z,935.19
2023-01-27T03:54:34.438Z,935.25
2023-01-27T03:55:34.977Z,935.23
2023-01-27T03:56:35.166Z,935.24
2023-01-27T03:57:35.912Z,935.22
2023-01-27T03:58:36.137Z,935.2
2023-01-27T03:59:36.944Z,935.07
2023-01-27T04:00:37.446Z,935.04
2023-01-27T04:01:38.390Z,935
2023-01-27T04:02:38.678Z,935.06
2023-01-27T04:03:39.275Z,935.08
2023-01-27T04:04:39.936Z,935.06
2023-01-27T04:05:40.364Z,935.03
2023-01-27T04:06:40.579Z,935.05
2023-01-27T04:07:41.255Z,935.04
2023-01-27T04:08:41.735Z,935.11
2023-01-27T04:09:41.938Z,935.08
2023-01-27T04:10:42.758Z,935.07
2023-01-27T04:11:42.996Z,935.03
2023-01-27T04:12:43.922Z,935.03
2023-01-27T04:13:44.545Z,935.05
2023-01-27T04:14:44.873Z,935.09
2023-01-27T04:15:45.189Z,935.06
2023-01-27T04:16:45.545Z,935.11
2023-01-27T04:17:46.474Z,935.13
2023-01-27T04:18:48.610Z,935.13
2023-01-27T04:19:47.142Z,935.15
2023-01-27T04:20:47.657Z,935.14
2023-01-27T04:21:48.406Z,935.2
2023-01-27T04:22:48.911Z,935.2
2023-01-27T04:23:49.120Z,935.18
2023-01-27T04:24:49.762Z,935.17
2023-01-27T04:25:50.031Z,935.17
2023-01-27T04:26:50.534Z,935.16
2023-01-27T04:27:50.796Z,935.16
2023-01-27T04:28:51.434Z,935.13
2023-01-27T04:29:51.662Z,935.08
2023-01-27T04:30:52.698Z,935.1
2023-01-27T04:31:53.696Z,935.1
2023-01-27T04:32:54.650Z,935.09
2023-01-27T04:33:55.415Z,935.13
2023-01-27T04:34:55.695Z,935.11
2023-01-27T04:35:56.761Z,935.12
2023-01-27T04:36:57.815Z,935.09
2023-01-27T04:37:58.027Z,935.1
2023-01-27T04:38:58.937Z,935.07
2023-01-27T04:39:59.315Z,935.05
2023-01-27T04:40:59.730Z,935.12
2023-01-27T04:42:00.052Z,935.09
2023-01-27T04:43:00.363Z,935.01
2023-01-27T04:44:00.851Z,935.04
2023-01-27T04:45:01.353Z,934.99
2023-01-27T04:46:01.996Z,935
2023-01-27T04:47:02.152Z,935.01
2023-01-27T04:48:02.389Z,935.05
2023-01-27T04:49:03.059Z,935.03
2023-01-27T04:50:03.559Z,935.01
2023-01-27T04:51:04.123Z,935.02
2023-01-27T04:52:05.134Z,935.03
2023-01-27T04:53:05.547Z,934.97
2023-01-27T04:54:06.474Z,935.06
2023-01-27T04:55:06.712Z,935.04
2023-01-27T04:56:07.780Z,935.08
2023-01-27T04:57:08.031Z,935.12
2023-01-27T04:58:08.950Z,935.12
2023-01-27T04:59:09.357Z,935.1
2023-01-27T05:00:10.354Z,935.15
2023-01-27T05:01:11.145Z,935.16
2023-01-27T05:02:11.974Z,935.13
2023-01-27T05:03:12.385Z,935.12
2023-01-27T05:04:12.758Z,935.16
2023-01-27T05:05:13.987Z,935.16
2023-01-27T05:06:14.718Z,935.16
2023-01-27T05:07:15.630Z,935.15
2023-01-27T05:08:16.019Z,935.15
2023-01-27T05:09:16.512Z,935.16
2023-01-27T05:10:17.174Z,935.18
2023-01-27T05:11:17.832Z,935.23
2023-01-27T05:12:18.534Z,935.19
2023-01-27T05:13:19.031Z,935.22
2023-01-27T05:14:19.231Z,935.21
2023-01-27T05:15:20.143Z,935.19
2023-01-27T05:16:20.394Z,935.19
2023-01-27T05:17:21.293Z,935.17
2023-01-27T05:18:21.854Z,935.16
2023-01-27T05:19:22.207Z,935.17
2023-01-27T05:20:22.794Z,935.19
2023-01-27T05:21:23.455Z,935.2
2023-01-27T05:22:23.963Z,935.2
2023-01-27T05:23:24.756Z,935.19
2023-01-27T05:24:25.139Z,935.21
2023-01-27T05:25:26.202Z,935.23
2023-01-27T05:26:26.503Z,935.17
2023-01-27T05:27:26.731Z,935.22
2023-01-27T05:28:28.318Z,935.2
2023-01-27T05:29:27.315Z,935.2
2023-01-27T05:30:27.849Z,935.19
2023-01-27T05:31:29.050Z,935.18
2023-01-27T05:32:29.508Z,935.23
2023-01-27T05:33:30.157Z,935.23
2023-01-27T05:34:30.424Z,935.24
2023-01-27T05:35:31.331Z,935.27
2023-01-27T05:36:31.877Z,935.27
2023-01-27T05:37:32.429Z,935.29
2023-01-27T05:38:32.651Z,935.33
2023-01-27T05:39:32.866Z,935.34
2023-01-27T05:40:33.625Z,935.33
2023-01-27T05:41:34.291Z,935.34
2023-01-27T05:42:35.335Z,935.38
2023-01-27T05:43:35.529Z,935.39
2023-01-27T05:44:35.734Z,935.4
2023-01-27T05:45:36.082Z,935.37
2023-01-27T05:46:36.440Z,935.42
2023-01-27T05:47:36.712Z,935.43
2023-01-27T05:48:37.436Z,935.44
2023-01-27T05:49:38.423Z,935.44
2023-01-27T05:50:39.047Z,935.48
2023-01-27T05:51:39.664Z,935.47
2023-01-27T05:52:40.657Z,935.49
2023-01-27T05:53:41.886Z,935.49
2023-01-27T05:54:42.806Z,935.55
2023-01-27T05:55:43.454Z,935.52
2023-01-27T05:56:44.019Z,935.54
2023-01-27T05:57:44.476Z,935.61
2023-01-27T05:58:45.153Z,935.59
2023-01-27T05:59:45.698Z,935.59
2023-01-27T06:00:46.184Z,935.61
2023-01-27T06:01:47.123Z,935.59
2023-01-27T06:02:48.131Z,935.61
2023-01-27T06:03:48.722Z,935.58
2023-01-27T06:04:49.694Z,935.63
2023-01-27T06:05:50.375Z,935.62
2023-01-27T06:06:50.896Z,935.63
2023-01-27T06:07:51.836Z,935.63
2023-01-27T06:08:52.197Z,935.62
2023-01-27T06:09:53.116Z,935.64
2023-01-27T06:10:54.033Z,935.7
2023-01-27T06:11:54.986Z,935.72
2023-01-27T06:12:55.281Z,935.71
2023-01-27T06:13:55.955Z,935.68
2023-01-27T06:14:56.593Z,935.68
2023-01-27T06:15:56.919Z,935.71
2023-01-27T06:16:57.312Z,935.74
2023-01-27T06:17:57.873Z,935.78
2023-01-27T06:18:58.079Z,935.82
2023-01-27T06:19:58.997Z,935.8
2023-01-27T06:20:59.912Z,935.79
2023-01-27T06:22:00.460Z,935.79
2023-01-27T06:23:01.523Z,935.78
2023-01-27T06:24:02.217Z,935.8
2023-01-27T06:25:02.837Z,935.81
2023-01-27T06:26:03.218Z,935.74
2023-01-27T06:27:03.475Z,935.79
2023-01-27T06:28:04.220Z,935.79
2023-01-27T06:29:04.659Z,935.79
2023-01-27T06:30:05.610Z,935.84
2023-01-27T06:31:06.625Z,935.85
2023-01-27T06:32:06.926Z,935.88
2023-01-27T06:33:07.726Z,935.87
2023-01-27T06:34:08.066Z,935.87
2023-01-27T06:35:08.542Z,935.89
2023-01-27T06:36:09.161Z,935.96
2023-01-27T06:37:09.827Z,935.92
2023-01-27T06:38:11.736Z,935.94
2023-01-27T06:39:10.843Z,935.94
2023-01-27T06:40:11.590Z,935.9
2023-01-27T06:41:11.930Z,935.87
2023-01-27T06:42:12.883Z,935.9
2023-01-27T06:43:13.302Z,935.88
2023-01-27T06:44:13.990Z,935.93
2023-01-27T06:45:14.210Z,935.93
2023-01-27T06:46:15.212Z,935.94
2023-01-27T06:47:15.680Z,935.95
2023-01-27T06:48:16.011Z,935.92
2023-01-27T06:49:17.073Z,935.95
2023-01-27T06:50:17.405Z,935.92
2023-01-27T06:51:18.183Z,935.95
2023-01-27T06:52:18.755Z,935.95
2023-01-27T06:53:19.509Z,935.98
2023-01-27T06:54:19.645Z,936.01
2023-01-27T06:55:19.976Z,936.03
2023-01-27T06:56:20.188Z,936.06
2023-01-27T06:57:20.417Z,936.07
2023-01-27T06:58:20.950Z,936.06
2023-01-27T06:59:21.160Z,936.07
2023-01-27T07:00:22.113Z,936.11
2023-01-27T07:01:23.194Z,936.08
2023-01-27T07:02:23.649Z,936.08
2023-01-27T07:03:24.085Z,936.12
2023-01-27T07:04:25.015Z,936.1
2023-01-27T07:05:25.314Z,936.12
2023-01-27T07:06:25.572Z,936.12
2023-01-27T07:07:25.832Z,936.13
2023-01-27T07:08:26.329Z,936.16
2023-01-27T07:09:26.700Z,936.17
2023-01-27T07:10:26.953Z,936.15
2023-01-27T07:11:27.859Z,936.15
2023-01-27T07:12:28.424Z,936.17
2023-01-27T07:13:28.527Z,936.15
2023-01-27T07:14:28.758Z,936.19
2023-01-27T07:15:28.876Z,936.19
2023-01-27T07:16:29.268Z,936.2
2023-01-27T07:17:30.141Z,936.19
2023-01-27T07:18:30.260Z,936.19
2023-01-27T07:19:31.170Z,936.19
2023-01-27T07:20:31.806Z,936.17
2023-01-27T07:21:32.139Z,936.16
2023-01-27T07:22:32.411Z,936.17
2023-01-27T07:23:32.716Z,936.17
2023-01-27T07:24:33.015Z,936.19
2023-01-27T07:25:33.220Z,936.19
2023-01-27T07:26:34.141Z,936.2
2023-01-27T07:27:35.105Z,936.23
2023-01-27T07:28:35.345Z,936.21
2023-01-27T07:29:36.264Z,936.23
2023-01-27T07:30:36.912Z,936.27
2023-01-27T07:31:37.282Z,936.24
2023-01-27T07:32:38.256Z,936.28
2023-01-27T07:33:38.729Z,936.26
2023-01-27T07:34:39.258Z,936.28
2023-01-27T07:35:40.205Z,936.33
2023-01-27T07:36:41.122Z,936.24
2023-01-27T07:37:41.431Z,936.26
2023-01-27T07:38:41.724Z,936.3
2023-01-27T07:39:42.053Z,936.25
2023-01-27T07:40:42.256Z,936.25
2023-01-27T07:41:42.913Z,936.28
2023-01-27T07:42:43.899Z,936.28
2023-01-27T07:43:44.255Z,936.3
2023-01-27T07:44:45.291Z,936.27
2023-01-27T07:45:46.284Z,936.23
2023-01-27T07:46:46.635Z,936.25
2023-01-27T07:47:47.556Z,936.24
2023-01-27T07:48:47.798Z,936.25
2023-01-27T07:49:48.002Z,936.25
2023-01-27T07:50:48.534Z,936.23
2023-01-27T07:51:49.448Z,936.2
2023-01-27T07:52:50.014Z,936.19
2023-01-27T07:53:50.788Z,936.21
2023-01-27T07:54:51.480Z,936.19
2023-01-27T07:55:52.031Z,936.16
2023-01-27T07:56:52.564Z,936.16
2023-01-27T07:57:52.814Z,936.13
2023-01-27T07:58:53.521Z,936.1
2023-01-27T07:59:54.238Z,936.1
2023-01-27T08:00:54.841Z,936.05
2023-01-27T08:01:54.954Z,936.07
2023-01-27T08:02:55.915Z,936.08
2023-01-27T08:03:55.964Z,936.12
2023-01-27T08:04:56.199Z,936.05
2023-01-27T08:05:57.122Z,936.06
2023-01-27T08:06:57.345Z,936.1
2023-01-27T08:07:58.918Z,936.09
2023-01-27T08:08:58.669Z,936.12
2023-01-27T08:09:59.574Z,936.08
2023-01-27T08:11:00.233Z,936.05
2023-01-27T08:12:00.451Z,936.08
2023-01-27T08:13:01.471Z,936.08
2023-01-27T08:14:01.755Z,936.11
2023-01-27T08:15:01.984Z,936.13
2023-01-27T08:16:02.984Z,936.18
2023-01-27T08:17:03.299Z,936.15
2023-01-27T08:18:03.800Z,936.17
2023-01-27T08:19:04.020Z,936.17
2023-01-27T08:20:04.658Z,936.17
2023-01-27T08:21:05.629Z,936.15
2023-01-27T08:22:05.828Z,936.16
2023-01-27T08:23:06.397Z,936.18
2023-01-27T08:24:06.575Z,936.2
2023-01-27T08:25:07.188Z,936.25
2023-01-27T08:26:07.825Z,936.26
2023-01-27T08:27:08.390Z,936.25
2023-01-27T08:28:08.367Z,936.27
2023-01-27T08:29:09.296Z,936.26
2023-01-27T08:30:10.222Z,936.23
2023-01-27T08:31:10.691Z,936.27
2023-01-27T08:32:12.409Z,936.25
2023-01-27T08:33:11.465Z,936.25
2023-01-27T08:34:12.220Z,936.21
2023-01-27T08:35:12.716Z,936.24
2023-01-27T08:36:12.957Z,936.22
2023-01-27T08:37:13.873Z,936.25
2023-01-27T08:38:14.162Z,936.29
2023-01-27T08:39:14.831Z,936.32
2023-01-27T08:40:15.912Z,936.35
2023-01-27T08:41:16.855Z,936.36
2023-01-27T08:42:17.778Z,936.41
2023-01-27T08:43:18.748Z,936.42
2023-01-27T08:44:18.959Z,936.41
2023-01-27T08:45:19.187Z,936.37
2023-01-27T08:46:19.767Z,936.36
2023-01-27T08:47:20.426Z,936.41
2023-01-27T08:48:21.059Z,936.4
2023-01-27T08:49:21.574Z,936.4
2023-01-27T08:50:21.797Z,936.39
2023-01-27T08:51:22.021Z,936.4
2023-01-27T08:52:22.248Z,936.4
2023-01-27T08:53:22.869Z,936.4
2023-01-27T08:54:23.869Z,936.42
2023-01-27T08:55:24.686Z,936.42
2023-01-27T08:56:24.894Z,936.46
2023-01-27T08:57:25.417Z,936.45
2023-01-27T08:58:26.141Z,936.4
2023-01-27T08:59:26.410Z,936.47
2023-01-27T09:00:26.780Z,936.53
2023-01-27T09:01:27.085Z,936.53
2023-01-27T09:02:27.341Z,936.51
2023-01-27T09:03:28.085Z,936.46
2023-01-27T09:04:28.372Z,936.5
2023-01-27T09:05:29.004Z,936.52
2023-01-27T09:06:29.964Z,936.52
2023-01-27T09:07:30.947Z,936.5
2023-01-27T09:08:31.552Z,936.51
2023-01-27T09:09:32.530Z,936.5
2023-01-27T09:10:32.762Z,936.47
2023-01-27T09:11:32.996Z,936.51
2023-01-27T09:12:33.480Z,936.54
2023-01-27T09:13:34.566Z,936.53
2023-01-27T09:14:34.899Z,936.53
2023-01-27T09:15:35.120Z,936.53
2023-01-27T09:16:35.502Z,936.52
2023-01-27T09:17:35.725Z,936.46
2023-01-27T09:18:36.681Z,936.47
2023-01-27T09:19:36.883Z,936.48
2023-01-27T09:20:37.410Z,936.51
2023-01-27T09:21:37.715Z,936.49
2023-01-27T09:22:37.966Z,936.51
2023-01-27T09:23:39.029Z,936.54
2023-01-27T09:24:39.654Z,936.52
2023-01-27T09:25:39.889Z,936.57
2023-01-27T09:26:40.842Z,936.56
2023-01-27T09:27:41.439Z,936.58
2023-01-27T09:28:41.976Z,936.6
2023-01-27T09:29:42.206Z,936.6
2023-01-27T09:30:45.184Z,936.63
2023-01-27T09:31:43.576Z,936.59
2023-01-27T09:32:43.804Z,936.58
2023-01-27T09:33:44.803Z,936.57
2023-01-27T09:34:45.122Z,936.62
2023-01-27T09:35:45.346Z,936.66
2023-01-27T09:36:45.844Z,936.69
2023-01-27T09:37:46.065Z,936.7
2023-01-27T09:38:46.649Z,936.69
2023-01-27T09:39:47.667Z,936.68
2023-01-27T09:40:48.590Z,936.7
2023-01-27T09:41:48.936Z,936.73
2023-01-27T09:42:49.171Z,936.76
2023-01-27T09:43:49.401Z,936.79
2023-01-27T09:44:50.461Z,936.79
2023-01-27T09:45:51.407Z,936.83
2023-01-27T09:46:51.577Z,936.81
2023-01-27T09:47:51.775Z,936.81
2023-01-27T09:48:52.114Z,936.83
2023-01-27T09:49:52.329Z,936.85
2023-01-27T09:50:52.854Z,936.87
2023-01-27T09:51:53.416Z,936.84
2023-01-27T09:52:53.972Z,936.88
2023-01-27T09:53:54.300Z,936.85
2023-01-27T09:54:55.167Z,936.92
2023-01-27T09:55:55.930Z,936.93
2023-01-27T09:56:56.081Z,936.93
2023-01-27T09:57:56.735Z,936.9
2023-01-27T09:58:57.779Z,936.87
2023-01-27T09:59:58.018Z,936.81
2023-01-27T10:00:58.837Z,936.81
2023-01-27T10:01:59.588Z,936.8
2023-01-27T10:03:00.133Z,936.79
2023-01-27T10:04:01.097Z,936.81
2023-01-27T10:05:02.046Z,936.81
2023-01-27T10:06:02.960Z,936.78
2023-01-27T10:07:03.217Z,936.78
2023-01-27T10:08:03.419Z,936.78
2023-01-27T10:09:04.020Z,936.79
2023-01-27T10:10:04.537Z,936.79
2023-01-27T10:11:04.960Z,936.79
2023-01-27T10:12:05.162Z,936.78
2023-01-27T10:13:05.374Z,936.78
2023-01-27T10:14:06.390Z,936.77
2023-01-27T10:15:06.983Z,936.75
2023-01-27T10:16:07.233Z,936.72
2023-01-27T10:17:08.113Z,936.73
2023-01-27T10:18:08.340Z,936.74
2023-01-27T10:19:08.556Z,936.77
2023-01-27T10:20:09.051Z,936.77
2023-01-27T10:21:09.872Z,936.74
2023-01-27T10:22:10.384Z,936.79
2023-01-27T10:23:11.301Z,936.75
2023-01-27T10:24:12.130Z,936.77
2023-01-27T10:25:13.071Z,936.82
2023-01-27T10:26:13.269Z,936.82
2023-01-27T10:27:14.202Z,936.81
2023-01-27T10:28:15.145Z,936.8
2023-01-27T10:29:16.124Z,936.79
2023-01-27T10:30:16.525Z,936.81
2023-01-27T10:31:17.279Z,936.77
2023-01-27T10:32:17.419Z,936.81
2023-01-27T10:33:18.393Z,936.81
2023-01-27T10:34:18.593Z,936.78
2023-01-27T10:35:19.639Z,936.79
2023-01-27T10:36:19.959Z,936.77
2023-01-27T10:37:20.203Z,936.78
2023-01-27T10:38:20.695Z,936.76
2023-01-27T10:39:21.037Z,936.77
2023-01-27T10:40:21.565Z,936.72
2023-01-27T10:41:21.780Z,936.74
2023-01-27T10:42:22.292Z,936.73
2023-01-27T10:43:22.827Z,936.7
2023-01-27T10:44:23.780Z,936.74
2023-01-27T10:45:24.487Z,936.79
2023-01-27T10:46:25.275Z,936.77
2023-01-27T10:47:25.588Z,936.75
2023-01-27T10:48:26.519Z,936.8
2023-01-27T10:49:26.755Z,936.78
2023-01-27T10:50:26.978Z,936.8
2023-01-27T10:51:28.022Z,936.82
2023-01-27T10:52:28.990Z,936.81
2023-01-27T10:53:29.918Z,936.8
2023-01-27T10:54:30.189Z,936.86
2023-01-27T10:55:30.563Z,936.84
2023-01-27T10:56:31.620Z,936.89
2023-01-27T10:57:32.175Z,936.89
2023-01-27T10:58:32.388Z,936.93
2023-01-27T10:59:32.630Z,936.94
2023-01-27T11:00:57.705Z,937.02
2023-01-27T11:01:36.220Z,936.97
2023-01-27T11:02:36.674Z,936.99
2023-01-27T11:03:37.327Z,936.97
2023-01-27T11:04:38.255Z,936.98
2023-01-27T11:05:38.987Z,936.96
2023-01-27T11:06:39.922Z,936.94
2023-01-27T11:07:40.299Z,936.94
2023-01-27T11:08:41.268Z,936.94
2023-01-27T11:09:41.889Z,936.97
2023-01-27T11:10:42.127Z,936.98
2023-01-27T11:11:42.628Z,936.96
2023-01-27T11:12:42.856Z,936.99
2023-01-27T11:13:43.111Z,936.96
2023-01-27T11:14:43.359Z,937.01
2023-01-27T11:15:44.186Z,936.93
2023-01-27T11:16:44.719Z,936.89
2023-01-27T11:17:45.541Z,936.91
2023-01-27T11:18:45.766Z,936.93
2023-01-27T11:19:46.261Z,936.9
2023-01-27T11:20:46.479Z,936.9
2023-01-27T11:21:53.013Z,936.89
2023-01-27T11:22:47.471Z,936.9
2023-01-27T11:23:47.693Z,936.91
2023-01-27T11:24:48.554Z,936.9
2023-01-27T11:25:49.607Z,936.88
2023-01-27T11:26:49.848Z,936.95
2023-01-27T11:27:50.801Z,936.93
2023-01-27T11:28:51.411Z,936.92
2023-01-27T11:29:52.115Z,936.9
2023-01-27T11:30:52.239Z,936.88
2023-01-27T11:31:52.844Z,936.81
2023-01-27T11:32:53.402Z,936.78
2023-01-27T11:33:54.335Z,936.74
2023-01-27T11:34:54.868Z,936.74
2023-01-27T11:35:55.243Z,936.74
2023-01-27T11:36:56.175Z,936.73
2023-01-27T11:38:06.435Z,936.72
2023-01-27T11:38:56.902Z,936.7
2023-01-27T11:39:57.496Z,936.69
2023-01-27T11:40:58.113Z,936.68
2023-01-27T11:41:58.318Z,936.64
2023-01-27T11:42:58.558Z,936.69
2023-01-27T11:43:58.775Z,936.71
2023-01-27T11:44:59.057Z,936.74
2023-01-27T11:45:59.683Z,936.74
2023-01-27T11:47:00.345Z,936.69
2023-01-27T11:48:00.847Z,936.7
2023-01-27T11:49:01.814Z,936.7
2023-01-27T11:50:02.761Z,936.7
2023-01-27T11:51:03.750Z,936.69
2023-01-27T11:52:04.536Z,936.62
2023-01-27T11:53:04.759Z,936.6
2023-01-27T11:54:05.738Z,936.6
2023-01-27T11:55:06.341Z,936.6
2023-01-27T11:56:07.360Z,936.6
2023-01-27T11:57:07.503Z,936.59
2023-01-27T11:58:08.005Z,936.59
2023-01-27T11:59:09.029Z,936.55
2023-01-27T12:00:09.564Z,936.56
2023-01-27T12:01:10.604Z,936.53
2023-01-27T12:02:10.817Z,936.52
2023-01-27T12:03:11.040Z,936.56
2023-01-27T12:04:11.350Z,936.58
2023-01-27T12:05:12.127Z,936.55
2023-01-27T12:06:13.159Z,936.58
2023-01-27T12:07:13.784Z,936.58
2023-01-27T12:08:13.985Z,936.49
2023-01-27T12:09:14.486Z,936.51
2023-01-27T12:10:15.414Z,936.51
2023-01-27T12:11:15.771Z,936.53
2023-01-27T12:12:15.915Z,936.53
2023-01-27T12:13:16.126Z,936.58
2023-01-27T12:14:17.030Z,936.54
2023-01-27T12:15:17.983Z,936.54
2023-01-27T12:16:18.785Z,936.58
2023-01-27T12:17:18.926Z,936.57
2023-01-27T12:18:19.876Z,936.59
2023-01-27T12:19:20.303Z,936.57
2023-01-27T12:20:20.668Z,936.61
2023-01-27T12:21:21.311Z,936.63
2023-01-27T12:22:21.807Z,936.61
2023-01-27T12:23:22.029Z,936.59
2023-01-27T12:24:22.751Z,936.6
2023-01-27T12:25:23.336Z,936.61
2023-01-27T12:26:24.083Z,936.59
2023-01-27T12:27:24.718Z,936.56
2023-01-27T12:28:25.669Z,936.56
2023-01-27T12:29:26.583Z,936.57
2023-01-27T12:30:27.516Z,936.57
2023-01-27T12:31:28.616Z,936.56
2023-01-27T12:32:29.407Z,936.59
2023-01-27T12:33:30.336Z,936.6
2023-01-27T12:34:30.999Z,936.58
2023-01-27T12:35:31.266Z,936.52
2023-01-27T12:36:32.302Z,936.51
2023-01-27T12:37:32.549Z,936.52
2023-01-27T12:38:33.471Z,936.55